Standon, United Kingdom
Current Conditions -  °F | °C
As of 3:50 PM on Thursday 27 Nov 2014 (Local Time) from EGOS Reporting Station
Haze Haze  
Wind Chill:   Ceiling: 2500
Heat Index:   Visibility: 4mi
Dew Point:   Wind: 8mph
Humidity: 87%   Direction: 130°SE
Pressure: 29.53"   Gusts: NA
Location:  52.92°N, 2.28°W
Report Text: EGOS 271550Z 13007KT 7000 HZ FEW008 BKN025 08/06 Q1000 WHT BECMG 4000 BR GRN
Loading
Personal Weather Stations






























Interactive Weather Map New forecast layout! Learn more

10-Day Weather Forecast

Advertisements
Track Severe Weather on mobile